sensor_id;sensor_type;location;lat;lon;timestamp;P1;durP1;ratioP1;P2;durP2;ratioP2
21822;SDS011;11074;48.596;9.238;2024-02-16T00:01:59;8.63;;;4.00;;
21822;SDS011;11074;48.596;9.238;2024-02-16T00:04:26;9.00;;;4.20;;
21822;SDS011;11074;48.596;9.238;2024-02-16T00:06:51;8.20;;;4.23;;
21822;SDS011;11074;48.596;9.238;2024-02-16T00:09:16;6.33;;;3.80;;
21822;SDS011;11074;48.596;9.238;2024-02-16T00:11:42;6.15;;;3.97;;
21822;SDS011;11074;48.596;9.238;2024-02-16T00:14:07;7.40;;;3.90;;
21822;SDS011;11074;48.596;9.238;2024-02-16T00:16:32;6.40;;;3.87;;
21822;SDS011;11074;48.596;9.238;2024-02-16T00:18:57;8.40;;;4.43;;
21822;SDS011;11074;48.596;9.238;2024-02-16T00:21:23;8.00;;;4.22;;
21822;SDS011;11074;48.596;9.238;2024-02-16T00:23:48;8.45;;;4.25;;
21822;SDS011;11074;48.596;9.238;2024-02-16T00:26:13;6.37;;;3.90;;
21822;SDS011;11074;48.596;9.238;2024-02-16T00:28:39;6.30;;;4.00;;
21822;SDS011;11074;48.596;9.238;2024-02-16T00:31:04;8.20;;;4.00;;
21822;SDS011;11074;48.596;9.238;2024-02-16T00:33:31;7.90;;;4.07;;
21822;SDS011;11074;48.596;9.238;2024-02-16T00:35:56;9.82;;;4.00;;
21822;SDS011;11074;48.596;9.238;2024-02-16T00:38:21;8.40;;;4.13;;
21822;SDS011;11074;48.596;9.238;2024-02-16T00:40:48;8.05;;;4.00;;
21822;SDS011;11074;48.596;9.238;2024-02-16T00:43:15;10.40;;;4.17;;
21822;SDS011;11074;48.596;9.238;2024-02-16T00:45:40;8.25;;;4.50;;
21822;SDS011;11074;48.596;9.238;2024-02-16T00:48:09;7.82;;;4.13;;
21822;SDS011;11074;48.596;9.238;2024-02-16T00:50:34;6.25;;;4.20;;
21822;SDS011;11074;48.596;9.238;2024-02-16T00:53:00;7.40;;;4.47;;
21822;SDS011;11074;48.596;9.238;2024-02-16T00:55:25;9.70;;;4.03;;
21822;SDS011;11074;48.596;9.238;2024-02-16T00:57:50;9.83;;;4.83;;
21822;SDS011;11074;48.596;9.238;2024-02-16T01:00:16;7.63;;;4.33;;
21822;SDS011;11074;48.596;9.238;2024-02-16T01:02:41;10.43;;;4.65;;
21822;SDS011;11074;48.596;9.238;2024-02-16T01:05:06;6.33;;;3.90;;
21822;SDS011;11074;48.596;9.238;2024-02-16T01:07:35;8.27;;;4.22;;
21822;SDS011;11074;48.596;9.238;2024-02-16T01:10:00;7.65;;;4.20;;
21822;SDS011;11074;48.596;9.238;2024-02-16T01:12:28;6.55;;;3.97;;
21822;SDS011;11074;48.596;9.238;2024-02-16T01:14:55;7.00;;;4.03;;
21822;SDS011;11074;48.596;9.238;2024-02-16T01:17:21;8.90;;;4.40;;
21822;SDS011;11074;48.596;9.238;2024-02-16T01:19:46;7.47;;;4.33;;
21822;SDS011;11074;48.596;9.238;2024-02-16T01:22:11;8.18;;;4.53;;
21822;SDS011;11074;48.596;9.238;2024-02-16T01:24:37;8.88;;;4.30;;
21822;SDS011;11074;48.596;9.238;2024-02-16T01:27:02;7.15;;;4.80;;
21822;SDS011;11074;48.596;9.238;2024-02-16T01:29:28;6.97;;;4.45;;
21822;SDS011;11074;48.596;9.238;2024-02-16T01:31:53;6.17;;;4.00;;
21822;SDS011;11074;48.596;9.238;2024-02-16T01:34:18;6.10;;;4.20;;
21822;SDS011;11074;48.596;9.238;2024-02-16T01:36:43;8.13;;;4.17;;
21822;SDS011;11074;48.596;9.238;2024-02-16T01:39:09;9.68;;;4.22;;
21822;SDS011;11074;48.596;9.238;2024-02-16T01:41:37;7.38;;;4.20;;
21822;SDS011;11074;48.596;9.238;2024-02-16T01:44:04;5.80;;;3.63;;
21822;SDS011;11074;48.596;9.238;2024-02-16T01:46:29;8.10;;;4.13;;
21822;SDS011;11074;48.596;9.238;2024-02-16T01:48:55;5.93;;;3.97;;
21822;SDS011;11074;48.596;9.238;2024-02-16T01:51:22;11.30;;;4.38;;
21822;SDS011;11074;48.596;9.238;2024-02-16T01:53:49;7.38;;;4.45;;
21822;SDS011;11074;48.596;9.238;2024-02-16T01:56:15;8.27;;;4.03;;
21822;SDS011;11074;48.596;9.238;2024-02-16T01:58:40;6.55;;;4.15;;
21822;SDS011;11074;48.596;9.238;2024-02-16T02:01:06;6.82;;;4.50;;
21822;SDS011;11074;48.596;9.238;2024-02-16T02:03:31;7.20;;;4.40;;
21822;SDS011;11074;48.596;9.238;2024-02-16T02:05:57;8.52;;;4.70;;
21822;SDS011;11074;48.596;9.238;2024-02-16T02:08:22;9.30;;;4.10;;
21822;SDS011;11074;48.596;9.238;2024-02-16T02:10:47;8.38;;;4.18;;
21822;SDS011;11074;48.596;9.238;2024-02-16T02:13:14;8.80;;;4.03;;
21822;SDS011;11074;48.596;9.238;2024-02-16T02:15:40;6.32;;;3.95;;
21822;SDS011;11074;48.596;9.238;2024-02-16T02:18:05;6.80;;;3.95;;
21822;SDS011;11074;48.596;9.238;2024-02-16T02:20:30;8.80;;;4.23;;
21822;SDS011;11074;48.596;9.238;2024-02-16T02:22:56;8.82;;;4.57;;
21822;SDS011;11074;48.596;9.238;2024-02-16T02:25:21;8.03;;;4.43;;
21822;SDS011;11074;48.596;9.238;2024-02-16T02:27:46;7.83;;;4.57;;
21822;SDS011;11074;48.596;9.238;2024-02-16T02:30:11;7.03;;;4.10;;
21822;SDS011;11074;48.596;9.238;2024-02-16T02:32:37;7.68;;;4.60;;
21822;SDS011;11074;48.596;9.238;2024-02-16T02:35:02;9.70;;;4.50;;
21822;SDS011;11074;48.596;9.238;2024-02-16T02:37:29;8.43;;;4.82;;
21822;SDS011;11074;48.596;9.238;2024-02-16T02:39:54;6.07;;;4.20;;
21822;SDS011;11074;48.596;9.238;2024-02-16T02:42:20;6.97;;;4.30;;
21822;SDS011;11074;48.596;9.238;2024-02-16T02:44:45;8.93;;;4.40;;
21822;SDS011;11074;48.596;9.238;2024-02-16T02:47:15;8.13;;;4.75;;
21822;SDS011;11074;48.596;9.238;2024-02-16T02:49:43;7.65;;;4.40;;
21822;SDS011;11074;48.596;9.238;2024-02-16T02:52:09;8.80;;;5.28;;
21822;SDS011;11074;48.596;9.238;2024-02-16T02:54:34;6.65;;;4.43;;
21822;SDS011;11074;48.596;9.238;2024-02-16T02:57:00;9.75;;;4.60;;
21822;SDS011;11074;48.596;9.238;2024-02-16T02:59:26;10.07;;;4.72;;
21822;SDS011;11074;48.596;9.238;2024-02-16T03:01:51;9.30;;;4.77;;
21822;SDS011;11074;48.596;9.238;2024-02-16T03:04:16;10.47;;;5.27;;
21822;SDS011;11074;48.596;9.238;2024-02-16T03:06:41;7.60;;;4.57;;
21822;SDS011;11074;48.596;9.238;2024-02-16T03:09:07;6.50;;;4.63;;
21822;SDS011;11074;48.596;9.238;2024-02-16T03:11:32;9.73;;;4.77;;
21822;SDS011;11074;48.596;9.238;2024-02-16T03:13:58;8.02;;;5.00;;
21822;SDS011;11074;48.596;9.238;2024-02-16T03:16:23;9.73;;;5.17;;
21822;SDS011;11074;48.596;9.238;2024-02-16T03:18:48;10.37;;;5.33;;
21822;SDS011;11074;48.596;9.238;2024-02-16T03:21:14;9.68;;;4.78;;
21822;SDS011;11074;48.596;9.238;2024-02-16T03:23:42;8.32;;;5.00;;
21822;SDS011;11074;48.596;9.238;2024-02-16T03:26:14;8.25;;;4.70;;
21822;SDS011;11074;48.596;9.238;2024-02-16T03:28:40;7.30;;;4.85;;
21822;SDS011;11074;48.596;9.238;2024-02-16T03:31:14;9.02;;;5.13;;
21822;SDS011;11074;48.596;9.238;2024-02-16T03:33:41;7.95;;;5.13;;
21822;SDS011;11074;48.596;9.238;2024-02-16T03:36:07;8.25;;;5.82;;
21822;SDS011;11074;48.596;9.238;2024-02-16T03:38:33;8.93;;;5.47;;
21822;SDS011;11074;48.596;9.238;2024-02-16T03:40:59;8.32;;;5.00;;
21822;SDS011;11074;48.596;9.238;2024-02-16T03:43:24;8.00;;;5.00;;
21822;SDS011;11074;48.596;9.238;2024-02-16T03:45:49;12.38;;;5.45;;
21822;SDS011;11074;48.596;9.238;2024-02-16T03:48:15;10.32;;;5.10;;
21822;SDS011;11074;48.596;9.238;2024-02-16T03:50:40;9.40;;;4.67;;
21822;SDS011;11074;48.596;9.238;2024-02-16T03:53:06;7.67;;;4.87;;
21822;SDS011;11074;48.596;9.238;2024-02-16T03:55:31;6.77;;;4.53;;
21822;SDS011;11074;48.596;9.238;2024-02-16T03:58:01;11.07;;;5.10;;
21822;SDS011;11074;48.596;9.238;2024-02-16T04:00:27;9.27;;;5.30;;
21822;SDS011;11074;48.596;9.238;2024-02-16T04:02:52;7.60;;;4.90;;
21822;SDS011;11074;48.596;9.238;2024-02-16T04:05:18;6.72;;;4.68;;
21822;SDS011;11074;48.596;9.238;2024-02-16T04:07:43;6.90;;;5.10;;
21822;SDS011;11074;48.596;9.238;2024-02-16T04:10:08;10.37;;;5.17;;
21822;SDS011;11074;48.596;9.238;2024-02-16T04:12:34;8.18;;;4.68;;
21822;SDS011;11074;48.596;9.238;2024-02-16T04:14:59;8.93;;;4.97;;
21822;SDS011;11074;48.596;9.238;2024-02-16T04:17:24;9.90;;;4.50;;
21822;SDS011;11074;48.596;9.238;2024-02-16T04:19:50;9.70;;;5.13;;
21822;SDS011;11074;48.596;9.238;2024-02-16T04:22:15;8.80;;;4.80;;
21822;SDS011;11074;48.596;9.238;2024-02-16T04:24:40;8.67;;;4.87;;
21822;SDS011;11074;48.596;9.238;2024-02-16T04:27:05;10.57;;;4.77;;
21822;SDS011;11074;48.596;9.238;2024-02-16T04:29:32;9.23;;;5.03;;
21822;SDS011;11074;48.596;9.238;2024-02-16T04:31:57;7.43;;;5.00;;
21822;SDS011;11074;48.596;9.238;2024-02-16T04:34:22;8.63;;;4.90;;
21822;SDS011;11074;48.596;9.238;2024-02-16T04:36:47;6.93;;;4.67;;
21822;SDS011;11074;48.596;9.238;2024-02-16T04:39:13;9.40;;;5.60;;
21822;SDS011;11074;48.596;9.238;2024-02-16T04:41:39;9.00;;;5.53;;
21822;SDS011;11074;48.596;9.238;2024-02-16T04:44:05;9.93;;;5.15;;
21822;SDS011;11074;48.596;9.238;2024-02-16T04:46:30;8.20;;;5.20;;
21822;SDS011;11074;48.596;9.238;2024-02-16T04:48:56;7.85;;;5.03;;
21822;SDS011;11074;48.596;9.238;2024-02-16T04:51:21;8.57;;;5.40;;
21822;SDS011;11074;48.596;9.238;2024-02-16T04:53:47;11.03;;;5.33;;
21822;SDS011;11074;48.596;9.238;2024-02-16T04:56:13;11.15;;;5.30;;
21822;SDS011;11074;48.596;9.238;2024-02-16T04:58:42;8.88;;;5.47;;
21822;SDS011;11074;48.596;9.238;2024-02-16T05:01:07;11.27;;;5.15;;
21822;SDS011;11074;48.596;9.238;2024-02-16T05:03:33;10.93;;;5.13;;
21822;SDS011;11074;48.596;9.238;2024-02-16T05:05:59;9.00;;;5.17;;
21822;SDS011;11074;48.596;9.238;2024-02-16T05:08:25;7.60;;;5.38;;
21822;SDS011;11074;48.596;9.238;2024-02-16T05:10:50;10.43;;;4.90;;
21822;SDS011;11074;48.596;9.238;2024-02-16T05:13:16;8.25;;;5.15;;
21822;SDS011;11074;48.596;9.238;2024-02-16T05:15:42;9.90;;;5.32;;
21822;SDS011;11074;48.596;9.238;2024-02-16T05:18:08;11.15;;;5.65;;
21822;SDS011;11074;48.596;9.238;2024-02-16T05:20:35;8.68;;;4.95;;
21822;SDS011;11074;48.596;9.238;2024-02-16T05:23:01;8.37;;;5.10;;
21822;SDS011;11074;48.596;9.238;2024-02-16T05:25:26;7.63;;;5.00;;
21822;SDS011;11074;48.596;9.238;2024-02-16T05:27:51;7.77;;;5.27;;
21822;SDS011;11074;48.596;9.238;2024-02-16T05:30:16;12.80;;;5.50;;
21822;SDS011;11074;48.596;9.238;2024-02-16T05:32:42;10.17;;;5.20;;
21822;SDS011;11074;48.596;9.238;2024-02-16T05:35:07;6.65;;;4.82;;
21822;SDS011;11074;48.596;9.238;2024-02-16T05:37:46;8.00;;;4.70;;
21822;SDS011;11074;48.596;9.238;2024-02-16T05:40:14;8.40;;;5.22;;
21822;SDS011;11074;48.596;9.238;2024-02-16T05:42:52;7.65;;;5.00;;
21822;SDS011;11074;48.596;9.238;2024-02-16T05:45:18;7.82;;;4.97;;
21822;SDS011;11074;48.596;9.238;2024-02-16T05:47:44;10.80;;;5.40;;
21822;SDS011;11074;48.596;9.238;2024-02-16T05:50:11;9.75;;;4.95;;
21822;SDS011;11074;48.596;9.238;2024-02-16T05:52:37;7.15;;;4.95;;
21822;SDS011;11074;48.596;9.238;2024-02-16T05:55:04;6.90;;;4.75;;
21822;SDS011;11074;48.596;9.238;2024-02-16T05:57:30;7.57;;;5.00;;
21822;SDS011;11074;48.596;9.238;2024-02-16T05:59:56;9.57;;;5.20;;
21822;SDS011;11074;48.596;9.238;2024-02-16T06:02:21;10.97;;;5.40;;
21822;SDS011;11074;48.596;9.238;2024-02-16T06:04:50;10.13;;;5.97;;
21822;SDS011;11074;48.596;9.238;2024-02-16T06:07:15;10.20;;;5.43;;
21822;SDS011;11074;48.596;9.238;2024-02-16T06:09:40;7.27;;;4.83;;
21822;SDS011;11074;48.596;9.238;2024-02-16T06:12:06;8.80;;;5.47;;
21822;SDS011;11074;48.596;9.238;2024-02-16T06:14:32;10.13;;;5.25;;
21822;SDS011;11074;48.596;9.238;2024-02-16T06:16:58;9.27;;;5.10;;
21822;SDS011;11074;48.596;9.238;2024-02-16T06:19:24;9.05;;;5.60;;
21822;SDS011;11074;48.596;9.238;2024-02-16T06:21:49;16.67;;;6.38;;
21822;SDS011;11074;48.596;9.238;2024-02-16T06:24:15;9.02;;;5.95;;
21822;SDS011;11074;48.596;9.238;2024-02-16T06:26:40;12.73;;;5.97;;
21822;SDS011;11074;48.596;9.238;2024-02-16T06:29:05;8.57;;;5.73;;
21822;SDS011;11074;48.596;9.238;2024-02-16T06:31:31;10.47;;;5.40;;
21822;SDS011;11074;48.596;9.238;2024-02-16T06:33:56;9.43;;;5.70;;
21822;SDS011;11074;48.596;9.238;2024-02-16T06:36:22;8.77;;;5.17;;
21822;SDS011;11074;48.596;9.238;2024-02-16T06:38:47;8.63;;;5.38;;
21822;SDS011;11074;48.596;9.238;2024-02-16T06:41:13;7.70;;;5.03;;
21822;SDS011;11074;48.596;9.238;2024-02-16T06:43:38;9.13;;;5.13;;
21822;SDS011;11074;48.596;9.238;2024-02-16T06:46:03;6.63;;;4.70;;
21822;SDS011;11074;48.596;9.238;2024-02-16T06:48:30;10.25;;;5.20;;
21822;SDS011;11074;48.596;9.238;2024-02-16T06:50:55;9.13;;;5.18;;
21822;SDS011;11074;48.596;9.238;2024-02-16T06:53:20;8.17;;;5.13;;
21822;SDS011;11074;48.596;9.238;2024-02-16T06:55:45;9.88;;;5.55;;
21822;SDS011;11074;48.596;9.238;2024-02-16T06:58:11;8.07;;;5.40;;
21822;SDS011;11074;48.596;9.238;2024-02-16T07:00:36;11.20;;;6.13;;
21822;SDS011;11074;48.596;9.238;2024-02-16T07:03:01;9.10;;;5.63;;
21822;SDS011;11074;48.596;9.238;2024-02-16T07:05:27;9.80;;;6.10;;
21822;SDS011;11074;48.596;9.238;2024-02-16T07:07:53;9.52;;;5.07;;
21822;SDS011;11074;48.596;9.238;2024-02-16T07:10:18;8.68;;;5.78;;
21822;SDS011;11074;48.596;9.238;2024-02-16T07:12:44;10.07;;;5.80;;
21822;SDS011;11074;48.596;9.238;2024-02-16T07:15:10;9.23;;;5.00;;
21822;SDS011;11074;48.596;9.238;2024-02-16T07:17:37;10.35;;;4.95;;
21822;SDS011;11074;48.596;9.238;2024-02-16T07:20:02;9.32;;;5.28;;
21822;SDS011;11074;48.596;9.238;2024-02-16T07:22:28;8.05;;;5.25;;
21822;SDS011;11074;48.596;9.238;2024-02-16T07:24:54;10.82;;;5.18;;
21822;SDS011;11074;48.596;9.238;2024-02-16T07:27:19;8.70;;;5.27;;
21822;SDS011;11074;48.596;9.238;2024-02-16T07:29:44;11.63;;;5.50;;
21822;SDS011;11074;48.596;9.238;2024-02-16T07:32:10;9.37;;;4.97;;
21822;SDS011;11074;48.596;9.238;2024-02-16T07:34:35;8.07;;;5.47;;
21822;SDS011;11074;48.596;9.238;2024-02-16T07:37:00;8.47;;;5.60;;
21822;SDS011;11074;48.596;9.238;2024-02-16T07:39:25;9.43;;;5.60;;
21822;SDS011;11074;48.596;9.238;2024-02-16T07:41:51;7.43;;;5.07;;
21822;SDS011;11074;48.596;9.238;2024-02-16T07:44:16;9.00;;;5.43;;
21822;SDS011;11074;48.596;9.238;2024-02-16T07:46:41;10.73;;;5.40;;
21822;SDS011;11074;48.596;9.238;2024-02-16T07:49:07;7.10;;;4.80;;
21822;SDS011;11074;48.596;9.238;2024-02-16T07:51:34;10.35;;;5.03;;
21822;SDS011;11074;48.596;9.238;2024-02-16T07:53:59;8.27;;;5.20;;
21822;SDS011;11074;48.596;9.238;2024-02-16T07:56:25;8.70;;;4.93;;
21822;SDS011;11074;48.596;9.238;2024-02-16T07:58:50;7.60;;;4.80;;
21822;SDS011;11074;48.596;9.238;2024-02-16T08:01:15;7.23;;;4.80;;
21822;SDS011;11074;48.596;9.238;2024-02-16T08:03:40;8.87;;;5.30;;
21822;SDS011;11074;48.596;9.238;2024-02-16T08:06:06;11.77;;;5.45;;
21822;SDS011;11074;48.596;9.238;2024-02-16T08:08:31;11.32;;;5.13;;
21822;SDS011;11074;48.596;9.238;2024-02-16T08:10:57;9.50;;;5.23;;
21822;SDS011;11074;48.596;9.238;2024-02-16T08:13:22;10.93;;;5.37;;
21822;SDS011;11074;48.596;9.238;2024-02-16T08:15:47;10.32;;;5.25;;
21822;SDS011;11074;48.596;9.238;2024-02-16T08:18:13;8.30;;;5.22;;
21822;SDS011;11074;48.596;9.238;2024-02-16T08:20:38;7.13;;;5.03;;
21822;SDS011;11074;48.596;9.238;2024-02-16T08:23:04;11.18;;;5.53;;
21822;SDS011;11074;48.596;9.238;2024-02-16T08:25:29;12.95;;;5.65;;
21822;SDS011;11074;48.596;9.238;2024-02-16T08:27:55;9.45;;;5.40;;
21822;SDS011;11074;48.596;9.238;2024-02-16T08:30:21;14.73;;;5.68;;
21822;SDS011;11074;48.596;9.238;2024-02-16T08:32:47;8.98;;;5.47;;
21822;SDS011;11074;48.596;9.238;2024-02-16T08:35:12;9.45;;;5.72;;
21822;SDS011;11074;48.596;9.238;2024-02-16T08:37:39;11.10;;;5.32;;
21822;SDS011;11074;48.596;9.238;2024-02-16T08:40:05;10.63;;;5.47;;
21822;SDS011;11074;48.596;9.238;2024-02-16T08:42:30;8.20;;;4.90;;
21822;SDS011;11074;48.596;9.238;2024-02-16T08:44:56;8.88;;;5.80;;
21822;SDS011;11074;48.596;9.238;2024-02-16T08:47:24;7.35;;;4.90;;
21822;SDS011;11074;48.596;9.238;2024-02-16T08:49:50;8.83;;;5.17;;
21822;SDS011;11074;48.596;9.238;2024-02-16T08:52:15;7.18;;;5.13;;
21822;SDS011;11074;48.596;9.238;2024-02-16T08:54:42;7.95;;;4.75;;
21822;SDS011;11074;48.596;9.238;2024-02-16T08:57:08;7.75;;;5.00;;
21822;SDS011;11074;48.596;9.238;2024-02-16T08:59:33;8.30;;;5.30;;
21822;SDS011;11074;48.596;9.238;2024-02-16T09:01:59;7.72;;;4.88;;
21822;SDS011;11074;48.596;9.238;2024-02-16T09:04:24;14.43;;;5.13;;
21822;SDS011;11074;48.596;9.238;2024-02-16T09:06:50;9.05;;;5.15;;
21822;SDS011;11074;48.596;9.238;2024-02-16T09:09:16;11.38;;;5.07;;
21822;SDS011;11074;48.596;9.238;2024-02-16T09:11:41;12.45;;;5.25;;
21822;SDS011;11074;48.596;9.238;2024-02-16T09:14:06;9.20;;;4.95;;
21822;SDS011;11074;48.596;9.238;2024-02-16T09:16:31;9.20;;;4.37;;
21822;SDS011;11074;48.596;9.238;2024-02-16T09:18:58;8.47;;;4.40;;
21822;SDS011;11074;48.596;9.238;2024-02-16T09:21:24;8.43;;;4.45;;
21822;SDS011;11074;48.596;9.238;2024-02-16T09:23:52;7.13;;;4.20;;
21822;SDS011;11074;48.596;9.238;2024-02-16T09:26:17;7.88;;;4.60;;
21822;SDS011;11074;48.596;9.238;2024-02-16T09:28:43;8.18;;;4.10;;
21822;SDS011;11074;48.596;9.238;2024-02-16T09:31:08;7.57;;;4.30;;
21822;SDS011;11074;48.596;9.238;2024-02-16T09:33:34;8.40;;;4.03;;
21822;SDS011;11074;48.596;9.238;2024-02-16T09:36:02;8.02;;;4.00;;
21822;SDS011;11074;48.596;9.238;2024-02-16T09:38:29;7.20;;;3.80;;
21822;SDS011;11074;48.596;9.238;2024-02-16T09:40:55;5.45;;;3.17;;
21822;SDS011;11074;48.596;9.238;2024-02-16T09:43:27;5.55;;;3.05;;
21822;SDS011;11074;48.596;9.238;2024-02-16T09:45:56;9.45;;;3.20;;
21822;SDS011;11074;48.596;9.238;2024-02-16T09:48:24;7.18;;;3.10;;
21822;SDS011;11074;48.596;9.238;2024-02-16T09:50:52;5.28;;;2.90;;
21822;SDS011;11074;48.596;9.238;2024-02-16T09:53:19;5.68;;;2.95;;
21822;SDS011;11074;48.596;9.238;2024-02-16T09:55:49;4.78;;;2.95;;
21822;SDS011;11074;48.596;9.238;2024-02-16T09:58:14;6.07;;;2.95;;
21822;SDS011;11074;48.596;9.238;2024-02-16T10:00:49;6.15;;;2.85;;
21822;SDS011;11074;48.596;9.238;2024-02-16T10:03:23;6.85;;;2.80;;
21822;SDS011;11074;48.596;9.238;2024-02-16T10:05:52;6.05;;;2.83;;
21822;SDS011;11074;48.596;9.238;2024-02-16T10:08:18;4.30;;;2.40;;
21822;SDS011;11074;48.596;9.238;2024-02-16T10:10:44;7.07;;;2.85;;
21822;SDS011;11074;48.596;9.238;2024-02-16T10:13:09;3.85;;;2.50;;
21822;SDS011;11074;48.596;9.238;2024-02-16T10:15:36;4.80;;;2.50;;
21822;SDS011;11074;48.596;9.238;2024-02-16T10:18:02;6.60;;;3.20;;
21822;SDS011;11074;48.596;9.238;2024-02-16T10:20:34;7.65;;;3.25;;
21822;SDS011;11074;48.596;9.238;2024-02-16T10:25:33;9.73;;;2.80;;
21822;SDS011;11074;48.596;9.238;2024-02-16T10:27:59;6.13;;;2.67;;
21822;SDS011;11074;48.596;9.238;2024-02-16T10:30:29;4.05;;;2.55;;
21822;SDS011;11074;48.596;9.238;2024-02-16T10:32:56;4.72;;;3.00;;
21822;SDS011;11074;48.596;9.238;2024-02-16T10:35:23;4.70;;;2.70;;
21822;SDS011;11074;48.596;9.238;2024-02-16T10:37:50;4.88;;;2.30;;
21822;SDS011;11074;48.596;9.238;2024-02-16T10:40:15;7.60;;;2.70;;
21822;SDS011;11074;48.596;9.238;2024-02-16T10:42:45;5.70;;;2.38;;
21822;SDS011;11074;48.596;9.238;2024-02-16T10:45:11;5.25;;;2.50;;
21822;SDS011;11074;48.596;9.238;2024-02-16T10:47:38;3.58;;;1.85;;
21822;SDS011;11074;48.596;9.238;2024-02-16T10:50:04;4.15;;;2.20;;
21822;SDS011;11074;48.596;9.238;2024-02-16T10:52:30;4.43;;;2.08;;
21822;SDS011;11074;48.596;9.238;2024-02-16T10:54:56;5.40;;;2.20;;
21822;SDS011;11074;48.596;9.238;2024-02-16T10:57:23;3.00;;;2.05;;
21822;SDS011;11074;48.596;9.238;2024-02-16T10:59:52;5.57;;;2.20;;
21822;SDS011;11074;48.596;9.238;2024-02-16T11:02:19;4.65;;;2.13;;
21822;SDS011;11074;48.596;9.238;2024-02-16T11:04:46;6.05;;;2.30;;
21822;SDS011;11074;48.596;9.238;2024-02-16T11:07:16;3.45;;;1.80;;
21822;SDS011;11074;48.596;9.238;2024-02-16T11:09:43;6.65;;;2.13;;
21822;SDS011;11074;48.596;9.238;2024-02-16T11:12:11;4.47;;;2.20;;
21822;SDS011;11074;48.596;9.238;2024-02-16T11:17:10;4.22;;;2.13;;
21822;SDS011;11074;48.596;9.238;2024-02-16T11:19:40;4.70;;;2.03;;
21822;SDS011;11074;48.596;9.238;2024-02-16T11:22:07;5.15;;;1.90;;
21822;SDS011;11074;48.596;9.238;2024-02-16T11:24:34;3.10;;;1.80;;
21822;SDS011;11074;48.596;9.238;2024-02-16T11:27:03;6.78;;;2.30;;
21822;SDS011;11074;48.596;9.238;2024-02-16T11:29:33;4.45;;;2.00;;
21822;SDS011;11074;48.596;9.238;2024-02-16T11:32:03;3.88;;;2.13;;
21822;SDS011;11074;48.596;9.238;2024-02-16T11:34:29;4.22;;;1.98;;
21822;SDS011;11074;48.596;9.238;2024-02-16T11:36:56;3.58;;;2.00;;
21822;SDS011;11074;48.596;9.238;2024-02-16T11:39:22;4.82;;;2.47;;
21822;SDS011;11074;48.596;9.238;2024-02-16T11:41:47;4.00;;;2.00;;
21822;SDS011;11074;48.596;9.238;2024-02-16T11:44:23;4.60;;;2.05;;
21822;SDS011;11074;48.596;9.238;2024-02-16T11:46:48;3.00;;;2.00;;
21822;SDS011;11074;48.596;9.238;2024-02-16T11:49:17;4.50;;;2.20;;
21822;SDS011;11074;48.596;9.238;2024-02-16T11:51:43;6.17;;;2.17;;
21822;SDS011;11074;48.596;9.238;2024-02-16T11:54:09;5.80;;;2.23;;
21822;SDS011;11074;48.596;9.238;2024-02-16T11:56:34;5.53;;;1.90;;
21822;SDS011;11074;48.596;9.238;2024-02-16T11:59:00;3.58;;;2.08;;
21822;SDS011;11074;48.596;9.238;2024-02-16T12:01:26;5.80;;;2.10;;
21822;SDS011;11074;48.596;9.238;2024-02-16T12:03:51;3.70;;;2.00;;
21822;SDS011;11074;48.596;9.238;2024-02-16T12:06:20;5.33;;;2.30;;
21822;SDS011;11074;48.596;9.238;2024-02-16T12:08:49;7.60;;;2.30;;
21822;SDS011;11074;48.596;9.238;2024-02-16T12:11:16;6.03;;;2.10;;
21822;SDS011;11074;48.596;9.238;2024-02-16T12:13:41;4.43;;;1.83;;
21822;SDS011;11074;48.596;9.238;2024-02-16T12:16:06;4.80;;;1.80;;
21822;SDS011;11074;48.596;9.238;2024-02-16T12:18:32;4.37;;;1.77;;
21822;SDS011;11074;48.596;9.238;2024-02-16T12:21:01;5.93;;;2.00;;
21822;SDS011;11074;48.596;9.238;2024-02-16T12:23:26;6.15;;;1.75;;
21822;SDS011;11074;48.596;9.238;2024-02-16T12:25:52;5.75;;;1.90;;
21822;SDS011;11074;48.596;9.238;2024-02-16T12:28:18;4.57;;;1.85;;
21822;SDS011;11074;48.596;9.238;2024-02-16T12:30:45;4.38;;;1.95;;
21822;SDS011;11074;48.596;9.238;2024-02-16T12:33:11;5.65;;;2.03;;
21822;SDS011;11074;48.596;9.238;2024-02-16T12:35:36;4.00;;;2.00;;
21822;SDS011;11074;48.596;9.238;2024-02-16T12:38:01;5.73;;;2.07;;
21822;SDS011;11074;48.596;9.238;2024-02-16T12:40:27;5.30;;;1.87;;
21822;SDS011;11074;48.596;9.238;2024-02-16T12:42:52;4.90;;;1.80;;
21822;SDS011;11074;48.596;9.238;2024-02-16T12:45:18;4.93;;;1.83;;
21822;SDS011;11074;48.596;9.238;2024-02-16T12:47:44;8.75;;;2.10;;
21822;SDS011;11074;48.596;9.238;2024-02-16T12:50:10;4.22;;;2.10;;
21822;SDS011;11074;48.596;9.238;2024-02-16T12:52:35;3.60;;;1.53;;
21822;SDS011;11074;48.596;9.238;2024-02-16T12:55:03;4.32;;;1.90;;
21822;SDS011;11074;48.596;9.238;2024-02-16T12:57:30;3.17;;;1.63;;
21822;SDS011;11074;48.596;9.238;2024-02-16T12:59:55;3.53;;;2.00;;
21822;SDS011;11074;48.596;9.238;2024-02-16T13:02:20;6.73;;;2.00;;
21822;SDS011;11074;48.596;9.238;2024-02-16T13:04:45;6.55;;;2.28;;
21822;SDS011;11074;48.596;9.238;2024-02-16T13:07:11;5.40;;;2.00;;
21822;SDS011;11074;48.596;9.238;2024-02-16T13:09:36;4.23;;;1.77;;
21822;SDS011;11074;48.596;9.238;2024-02-16T13:12:01;4.10;;;1.70;;
21822;SDS011;11074;48.596;9.238;2024-02-16T13:14:28;4.72;;;2.25;;
21822;SDS011;11074;48.596;9.238;2024-02-16T13:16:53;5.70;;;2.70;;
21822;SDS011;11074;48.596;9.238;2024-02-16T13:19:18;3.30;;;2.00;;
21822;SDS011;11074;48.596;9.238;2024-02-16T13:21:44;6.20;;;2.03;;
21822;SDS011;11074;48.596;9.238;2024-02-16T13:24:09;4.78;;;2.17;;
21822;SDS011;11074;48.596;9.238;2024-02-16T13:26:35;4.95;;;2.25;;
21822;SDS011;11074;48.596;9.238;2024-02-16T13:29:00;4.23;;;1.70;;
21822;SDS011;11074;48.596;9.238;2024-02-16T13:31:25;3.87;;;1.73;;
21822;SDS011;11074;48.596;9.238;2024-02-16T13:33:52;5.57;;;1.90;;
21822;SDS011;11074;48.596;9.238;2024-02-16T13:36:18;5.95;;;2.05;;
21822;SDS011;11074;48.596;9.238;2024-02-16T13:38:44;5.13;;;2.20;;
21822;SDS011;11074;48.596;9.238;2024-02-16T13:41:09;4.80;;;2.10;;
21822;SDS011;11074;48.596;9.238;2024-02-16T13:43:34;5.00;;;2.45;;
21822;SDS011;11074;48.596;9.238;2024-02-16T13:46:00;4.70;;;2.00;;
21822;SDS011;11074;48.596;9.238;2024-02-16T13:48:26;8.10;;;2.08;;
21822;SDS011;11074;48.596;9.238;2024-02-16T13:50:54;6.18;;;1.92;;
21822;SDS011;11074;48.596;9.238;2024-02-16T13:53:19;6.15;;;1.90;;
21822;SDS011;11074;48.596;9.238;2024-02-16T13:55:47;8.93;;;2.33;;
21822;SDS011;11074;48.596;9.238;2024-02-16T13:58:13;4.97;;;1.90;;
21822;SDS011;11074;48.596;9.238;2024-02-16T14:00:38;5.47;;;1.73;;
21822;SDS011;11074;48.596;9.238;2024-02-16T14:03:05;3.92;;;1.85;;
21822;SDS011;11074;48.596;9.238;2024-02-16T14:05:38;9.65;;;2.03;;
21822;SDS011;11074;48.596;9.238;2024-02-16T14:08:04;7.30;;;2.00;;
21822;SDS011;11074;48.596;9.238;2024-02-16T14:10:30;4.47;;;2.03;;
21822;SDS011;11074;48.596;9.238;2024-02-16T14:12:57;7.13;;;2.17;;
21822;SDS011;11074;48.596;9.238;2024-02-16T14:15:22;6.82;;;2.10;;
21822;SDS011;11074;48.596;9.238;2024-02-16T14:17:47;8.20;;;2.20;;
21822;SDS011;11074;48.596;9.238;2024-02-16T14:20:12;4.83;;;2.10;;
21822;SDS011;11074;48.596;9.238;2024-02-16T14:22:38;7.63;;;3.10;;
21822;SDS011;11074;48.596;9.238;2024-02-16T14:25:03;9.47;;;3.47;;
21822;SDS011;11074;48.596;9.238;2024-02-16T14:27:29;6.97;;;2.17;;
21822;SDS011;11074;48.596;9.238;2024-02-16T14:29:54;6.97;;;2.47;;
21822;SDS011;11074;48.596;9.238;2024-02-16T14:32:20;9.18;;;2.50;;
21822;SDS011;11074;48.596;9.238;2024-02-16T14:34:45;9.07;;;2.40;;
21822;SDS011;11074;48.596;9.238;2024-02-16T14:37:10;5.60;;;2.20;;
21822;SDS011;11074;48.596;9.238;2024-02-16T14:39:35;7.90;;;2.30;;
21822;SDS011;11074;48.596;9.238;2024-02-16T14:42:01;4.33;;;1.97;;
21822;SDS011;11074;48.596;9.238;2024-02-16T14:44:26;4.13;;;2.03;;